Time;durP1;ratioP1;P1;durP2;ratioP2;P2;SDS_P1;SDS_P2;PMS_P1;PMS_P2;Temp;Humidity;BMP_temperature;BMP_pressure;BME280_temperature;BME280_humidity;BME280_pressure;Samples;Min_cycle;Max_cycle;Signal;HPM_P1;HPM_P2
2023/07/25 00:02:08;;;;;;;3.13;0.90;;;;;;;15.41;100.00;97369.38;15272063;19;20483;-54
2023/07/25 00:07:35;;;;;;;1.48;1.00;;;;;;;15.40;100.00;97367.69;15274036;19;20018;-51
2023/07/25 00:13:01;;;;;;;1.55;0.80;;;;;;;15.40;100.00;97377.75;15268263;19;20026;-54
2023/07/25 00:18:25;;;;;;;2.35;1.10;;;;;;;15.39;100.00;97393.16;15273027;19;20010;-54
2023/07/25 00:23:52;;;;;;;2.28;1.30;;;;;;;15.35;100.00;97410.94;15263748;19;20014;-53
2023/07/25 00:29:17;;;;;;;2.75;1.20;;;;;;;15.31;100.00;97431.44;15273912;19;20376;-54
2023/07/25 00:34:42;;;;;;;3.85;1.13;;;;;;;15.25;100.00;97432.28;15270656;19;20825;-56
2023/07/25 00:40:09;;;;;;;1.88;1.42;;;;;;;15.20;100.00;97440.25;15270124;19;20329;-53
2023/07/25 00:45:40;;;;;;;3.95;1.33;;;;;;;15.12;100.00;97435.03;15258566;19;20048;-46
2023/07/25 00:51:05;;;;;;;4.65;1.20;;;;;;;15.08;100.00;97419.22;15263269;19;20019;-46
2023/07/25 00:56:33;;;;;;;2.35;1.00;;;;;;;15.02;100.00;97411.09;15260760;19;20022;-48
2023/07/25 01:01:58;;;;;;;2.80;1.20;;;;;;;14.95;100.00;97394.84;15268575;19;20370;-47
2023/07/25 01:07:23;;;;;;;3.17;1.10;;;;;;;14.91;100.00;97391.75;15263967;19;20367;-45
2023/07/25 01:12:50;;;;;;;3.05;1.10;;;;;;;14.88;100.00;97397.59;15277684;19;20022;-45
2023/07/25 01:18:16;;;;;;;2.38;1.05;;;;;;;14.86;100.00;97388.00;15282847;19;20406;-47
2023/07/25 01:23:42;;;;;;;1.35;0.82;;;;;;;14.81;100.00;97394.09;15281806;19;20018;-48
2023/07/25 01:29:09;;;;;;;3.25;1.10;;;;;;;14.72;100.00;97387.22;15282285;19;20021;-46
2023/07/25 01:34:34;;;;;;;3.45;1.13;;;;;;;14.67;100.00;97385.13;15276774;19;20022;-46
2023/07/25 01:39:59;;;;;;;2.53;1.08;;;;;;;14.65;100.00;97387.19;15282373;19;20014;-46
2023/07/25 01:45:33;;;;;;;4.35;1.10;;;;;;;14.54;100.00;97369.72;15278918;19;20470;-47
2023/07/25 01:50:59;;;;;;;2.42;1.00;;;;;;;14.46;100.00;97365.38;15281379;19;20017;-45
2023/07/25 01:56:23;;;;;;;2.28;1.10;;;;;;;14.38;100.00;97353.91;15279239;19;20475;-46
2023/07/25 02:01:50;;;;;;;2.92;1.15;;;;;;;14.24;100.00;97350.41;15273019;19;20102;-47
2023/07/25 02:07:16;;;;;;;2.22;0.95;;;;;;;14.13;100.00;97360.84;15277375;19;20034;-47
2023/07/25 02:12:44;;;;;;;0.82;0.80;;;;;;;14.06;100.00;97361.91;15276588;19;20019;-46
2023/07/25 02:18:11;;;;;;;1.45;0.85;;;;;;;14.07;100.00;97363.56;15280658;19;20014;-46
2023/07/25 02:23:36;;;;;;;3.15;1.30;;;;;;;14.06;100.00;97368.13;15276552;19;20014;-46
2023/07/25 02:29:00;;;;;;;1.73;0.95;;;;;;;14.07;100.00;97367.09;15278685;19;20022;-46
2023/07/25 02:34:27;;;;;;;1.98;1.00;;;;;;;14.06;100.00;97365.41;15267942;19;20074;-45
2023/07/25 02:39:52;;;;;;;2.72;0.90;;;;;;;14.06;100.00;97354.59;15279309;19;20021;-45
2023/07/25 02:45:23;;;;;;;2.17;1.00;;;;;;;14.05;100.00;97347.53;15276726;19;20022;-48
2023/07/25 02:50:51;;;;;;;1.05;0.80;;;;;;;14.01;100.00;97355.22;15278643;19;20038;-47
2023/07/25 02:56:15;;;;;;;2.15;0.95;;;;;;;14.01;100.00;97347.09;15275511;19;20090;-48
2023/07/25 03:01:40;;;;;;;1.90;0.95;;;;;;;13.99;100.00;97353.78;15276346;19;20018;-46
2023/07/25 03:07:07;;;;;;;1.88;0.90;;;;;;;13.95;100.00;97341.69;14760116;19;9999889;-46
2023/07/25 03:12:32;;;;;;;1.90;1.00;;;;;;;13.91;100.00;97348.59;15270793;19;20849;-46
2023/07/25 03:17:56;;;;;;;3.75;1.20;;;;;;;13.87;100.00;97354.41;15272598;19;20011;-47
2023/07/25 03:23:24;;;;;;;2.70;1.17;;;;;;;13.82;100.00;97367.72;15273535;19;20010;-49
2023/07/25 03:28:49;;;;;;;2.60;1.20;;;;;;;13.78;100.00;97373.75;15275695;19;20014;-48
2023/07/25 03:34:14;;;;;;;1.95;1.13;;;;;;;13.78;100.00;97379.19;15269549;19;21183;-49
2023/07/25 03:39:41;;;;;;;1.77;1.10;;;;;;;13.76;100.00;97371.28;15272405;19;20018;-46
2023/07/25 03:45:06;;;;;;;4.28;1.00;;;;;;;13.75;100.00;97350.66;15272538;19;20065;-45
2023/07/25 03:50:31;;;;;;;2.40;1.23;;;;;;;13.74;100.00;97342.75;15272885;19;20570;-44
2023/07/25 03:55:59;;;;;;;1.63;0.90;;;;;;;13.73;100.00;97331.09;15269896;19;20019;-48
2023/07/25 04:01:24;;;;;;;2.67;1.27;;;;;;;13.77;100.00;97317.97;15271225;19;20389;-50
2023/07/25 04:06:49;;;;;;;2.42;1.00;;;;;;;13.74;100.00;97311.09;15268321;19;20942;-51
2023/07/25 04:12:17;;;;;;;2.08;1.00;;;;;;;13.71;100.00;97308.81;15267426;19;20010;-47
2023/07/25 04:17:42;;;;;;;1.40;0.95;;;;;;;13.67;100.00;97291.34;15267882;19;20014;-49
2023/07/25 04:23:06;;;;;;;2.97;1.20;;;;;;;13.65;100.00;97288.81;15269540;19;20014;-48
2023/07/25 04:28:34;;;;;;;2.28;1.25;;;;;;;13.60;100.00;97298.59;15271687;19;20111;-53
2023/07/25 04:33:58;;;;;;;2.15;1.20;;;;;;;13.59;100.00;97313.19;15264807;19;20022;-50
2023/07/25 04:39:23;;;;;;;4.68;1.40;;;;;;;13.60;100.00;97352.72;15264649;19;20020;-50
2023/07/25 04:44:50;;;;;;;2.15;1.40;;;;;;;13.62;100.00;97385.84;15273795;19;20573;-50
2023/07/25 04:50:16;;;;;;;3.25;1.50;;;;;;;13.65;100.00;97434.13;15281994;19;20286;-51
2023/07/25 04:55:41;;;;;;;2.03;1.30;;;;;;;13.67;100.00;97430.19;15276916;19;20054;-51
2023/07/25 05:01:12;;;;;;;2.42;1.45;;;;;;;13.72;100.00;97421.44;15281171;19;20086;-52
2023/07/25 05:06:36;;;;;;;3.55;1.67;;;;;;;13.81;100.00;97435.63;15277786;19;20082;-51
2023/07/25 05:12:04;;;;;;;3.85;1.40;;;;;;;13.87;100.00;97441.03;15277120;19;20105;-49
2023/07/25 05:17:31;;;;;;;4.38;1.77;;;;;;;13.96;100.00;97441.69;15279933;19;20086;-49
2023/07/25 05:22:56;;;;;;;2.85;1.50;;;;;;;14.06;100.00;97452.09;15282099;19;20017;-50
2023/07/25 05:28:20;;;;;;;5.10;1.60;;;;;;;14.17;100.00;97439.81;15282637;19;20021;-51
2023/07/25 05:33:48;;;;;;;2.70;1.50;;;;;;;14.26;100.00;97438.53;15278641;19;20768;-48
2023/07/25 05:39:12;;;;;;;4.22;1.70;;;;;;;14.35;100.00;97428.34;15284536;19;20385;-48
2023/07/25 05:44:37;;;;;;;3.05;1.60;;;;;;;14.47;100.00;97437.50;15272863;19;20582;-49
2023/07/25 05:50:06;;;;;;;2.58;1.70;;;;;;;14.59;100.00;97443.09;15283042;19;20010;-51
2023/07/25 05:55:31;;;;;;;3.67;1.50;;;;;;;14.69;100.00;97426.44;15273579;19;20022;-49
2023/07/25 06:00:56;;;;;;;3.42;1.92;;;;;;;14.79;100.00;97409.72;15282462;19;20021;-47
2023/07/25 06:06:24;;;;;;;3.20;1.67;;;;;;;14.91;100.00;97420.72;15278041;19;20013;-47
2023/07/25 06:11:48;;;;;;;2.63;1.48;;;;;;;15.02;100.00;97398.38;15279602;19;20014;-51
2023/07/25 06:17:13;;;;;;;3.90;1.50;;;;;;;15.13;100.00;97391.44;15272456;19;20011;-47
2023/07/25 06:22:40;;;;;;;3.15;1.30;;;;;;;15.25;100.00;97364.44;15278713;19;20021;-53
2023/07/25 06:28:06;;;;;;;3.72;1.35;;;;;;;15.44;100.00;97359.94;15280709;19;20025;-52
2023/07/25 06:33:30;;;;;;;2.45;1.10;;;;;;;15.65;100.00;97353.34;15275924;19;20079;-51
2023/07/25 06:38:58;;;;;;;3.33;1.10;;;;;;;15.78;100.00;97316.28;15279727;19;20025;-51
2023/07/25 06:44:23;;;;;;;2.42;1.05;;;;;;;15.92;100.00;97292.56;15275139;19;20026;-52
2023/07/25 06:49:48;;;;;;;2.50;0.77;;;;;;;16.07;100.00;97274.03;15270810;19;20014;-51
2023/07/25 06:55:22;;;;;;;2.58;0.90;;;;;;;16.25;100.00;97292.22;15263605;19;20068;-60
2023/07/25 07:00:48;;;;;;;2.78;1.00;;;;;;;16.36;100.00;97296.06;15274880;19;20660;-58
2023/07/25 07:06:12;;;;;;;0.80;0.80;;;;;;;16.48;100.00;97285.28;15275224;19;20021;-60
2023/07/25 07:11:40;;;;;;;2.10;0.90;;;;;;;16.55;100.00;97275.16;15276117;19;20017;-61
2023/07/25 07:17:04;;;;;;;2.58;1.10;;;;;;;16.62;100.00;97275.91;15274248;19;20363;-60
2023/07/25 07:22:29;;;;;;;1.63;1.10;;;;;;;16.68;100.00;97262.44;15268572;19;20025;-60
2023/07/25 07:27:56;;;;;;;1.50;1.10;;;;;;;16.77;100.00;97252.91;15271841;19;20109;-60
2023/07/25 07:33:21;;;;;;;1.92;1.10;;;;;;;16.78;100.00;97257.28;15271192;19;20090;-60
2023/07/25 07:38:45;;;;;;;2.30;1.05;;;;;;;16.82;100.00;97253.06;15273583;19;20018;-61
2023/07/25 07:44:13;;;;;;;2.30;1.00;;;;;;;16.82;100.00;97247.63;15270390;19;20022;-59
2023/07/25 07:49:41;;;;;;;2.53;1.02;;;;;;;16.88;100.00;97245.88;15273228;19;20346;-60
2023/07/25 07:55:07;;;;;;;2.25;0.90;;;;;;;16.82;100.00;97241.34;15267109;19;20015;-60
2023/07/25 08:00:34;;;;;;;2.47;0.98;;;;;;;16.82;100.00;97236.75;15276141;19;20343;-60
2023/07/25 08:05:59;;;;;;;1.52;1.00;;;;;;;16.80;100.00;97238.84;15271250;19;20022;-60
2023/07/25 08:11:23;;;;;;;1.20;0.90;;;;;;;16.83;100.00;97238.41;15275262;19;20482;-60
2023/07/25 08:16:51;;;;;;;20.20;5.35;;;;;;;16.88;100.00;97243.97;15270406;19;20976;-61
2023/07/25 08:22:16;;;;;;;1.65;0.90;;;;;;;16.90;100.00;97232.88;15289319;19;20015;-60
2023/07/25 08:27:41;;;;;;;1.95;1.10;;;;;;;16.91;100.00;97246.22;15279455;19;20446;-60
2023/07/25 08:33:10;;;;;;;1.63;1.20;;;;;;;16.98;100.00;97258.94;15285525;19;20010;-61
2023/07/25 08:38:35;;;;;;;2.88;1.40;;;;;;;16.96;100.00;97270.03;15285973;19;20028;-59
2023/07/25 08:44:01;;;;;;;2.35;1.30;;;;;;;16.92;100.00;97277.81;15280865;19;20360;-59
2023/07/25 08:49:33;;;;;;;2.13;1.45;;;;;;;16.83;100.00;97298.25;15289293;19;20022;-59
2023/07/25 08:54:57;;;;;;;2.67;1.38;;;;;;;16.78;100.00;97295.34;15284030;19;20370;-61
2023/07/25 09:00:23;;;;;;;2.65;1.48;;;;;;;16.81;100.00;97315.84;15282753;19;20029;-59
2023/07/25 09:05:51;;;;;;;2.47;1.50;;;;;;;16.77;100.00;97310.00;15283427;19;20025;-61
2023/07/25 09:11:18;;;;;;;2.63;1.63;;;;;;;16.87;100.00;97323.94;15284277;19;20042;-61
2023/07/25 09:16:42;;;;;;;2.28;1.27;;;;;;;16.89;100.00;97321.78;15281128;19;20015;-60
2023/07/25 09:22:28;;;;;;;1.67;1.05;;;;;;;16.83;100.00;97303.69;15285869;19;20089;-60
2023/07/25 09:27:53;;;;;;;1.80;0.90;;;;;;;16.89;100.00;97283.69;15283349;19;20002;-59
2023/07/25 09:33:27;;;;;;;2.38;0.90;;;;;;;16.92;100.00;97305.00;15276991;19;20014;-59
2023/07/25 09:39:03;;;;;;;1.00;0.90;;;;;;;16.97;100.00;97307.06;15284725;19;20508;-58
2023/07/25 09:44:28;;;;;;;1.10;1.00;;;;;;;16.97;100.00;97320.66;15281502;19;20609;-57
2023/07/25 09:49:56;;;;;;;2.17;1.05;;;;;;;16.97;100.00;97306.25;15285653;19;20476;-62
2023/07/25 09:55:24;;;;;;;2.17;1.30;;;;;;;17.01;100.00;97302.84;15281494;19;20097;-58
2023/07/25 10:00:49;;;;;;;2.88;1.23;;;;;;;17.16;100.00;97307.84;15284048;19;20018;-57
2023/07/25 10:06:16;;;;;;;2.35;0.90;;;;;;;17.24;100.00;97283.03;15273944;19;20017;-60
2023/07/25 10:11:44;;;;;;;1.70;1.10;;;;;;;17.38;100.00;97277.38;15282386;19;20007;-59
2023/07/25 10:17:10;;;;;;;1.30;1.00;;;;;;;17.47;100.00;97273.25;15268874;19;20899;-59
2023/07/25 10:22:42;;;;;;;3.20;1.15;;;;;;;17.49;100.00;97275.75;15273161;19;20026;-60
2023/07/25 10:28:11;;;;;;;1.92;1.00;;;;;;;17.43;100.00;97274.81;15279081;19;20011;-58
2023/07/25 10:34:04;;;;;;;3.00;1.20;;;;;;;17.44;100.00;97278.34;15278313;19;20011;-60
2023/07/25 10:39:29;;;;;;;5.25;1.38;;;;;;;17.38;100.00;97278.22;15280936;19;20335;-59
2023/07/25 10:44:57;;;;;;;2.53;1.50;;;;;;;17.16;100.00;97277.91;15277523;19;20014;-59
2023/07/25 10:50:27;;;;;;;2.45;1.60;;;;;;;16.92;100.00;97269.66;15280645;19;20007;-60
2023/07/25 10:56:16;;;;;;;5.07;1.63;;;;;;;16.76;100.00;97278.44;15274227;19;20025;-59
2023/07/25 11:01:46;;;;;;;2.20;1.60;;;;;;;16.70;100.00;97279.38;15277406;19;20019;-60
2023/07/25 11:07:19;;;;;;;2.67;1.40;;;;;;;16.61;100.00;97285.13;15269199;19;20019;-59
2023/07/25 11:12:44;;;;;;;3.90;1.60;;;;;;;16.42;100.00;97286.19;15276008;19;20026;-57
2023/07/25 11:18:15;;;;;;;2.95;1.60;;;;;;;16.37;100.00;97302.34;15276043;19;20017;-59
2023/07/25 11:23:40;;;;;;;1.70;1.60;;;;;;;16.33;100.00;97280.25;15274134;19;20021;-60
2023/07/25 11:29:09;;;;;;;1.52;1.42;;;;;;;16.42;100.00;97292.47;15278676;19;20029;-61
2023/07/25 11:34:37;;;;;;;2.58;1.70;;;;;;;16.54;100.00;97297.13;15271486;19;20018;-59
2023/07/25 11:40:01;;;;;;;1.63;1.20;;;;;;;16.68;100.00;97270.59;15271723;19;20018;-61
2023/07/25 11:45:26;;;;;;;1.60;1.38;;;;;;;16.82;100.00;97265.84;15272814;19;20021;-60
2023/07/25 11:50:55;;;;;;;1.20;1.10;;;;;;;16.85;100.00;97258.03;15276666;19;21582;-61
2023/07/25 11:56:20;;;;;;;2.38;1.20;;;;;;;16.87;100.00;97249.63;15270877;19;20101;-61
2023/07/25 12:01:45;;;;;;;2.65;1.80;;;;;;;16.93;100.00;97263.16;15272540;19;20038;-55
2023/07/25 12:07:13;;;;;;;2.20;2.00;;;;;;;16.81;100.00;97267.72;15270022;19;20075;-56
2023/07/25 12:12:39;;;;;;;2.30;2.10;;;;;;;16.70;100.00;97265.78;15266445;19;20015;-59
2023/07/25 12:18:04;;;;;;;1.98;1.80;;;;;;;16.61;100.00;97284.28;15273052;19;20018;-57
2023/07/25 12:23:38;;;;;;;1.63;1.52;;;;;;;16.48;100.00;97274.41;15272285;19;20021;-56
2023/07/25 12:29:03;;;;;;;3.42;1.80;;;;;;;16.40;100.00;97269.28;15272430;19;20021;-58
2023/07/25 12:34:28;;;;;;;1.50;1.40;;;;;;;16.35;100.00;97266.41;15267708;19;20016;-59
2023/07/25 12:39:56;;;;;;;3.15;1.90;;;;;;;16.31;100.00;97266.03;15272032;19;20018;-59
2023/07/25 12:45:21;;;;;;;2.20;1.80;;;;;;;16.33;100.00;97283.78;15264183;19;20025;-58
2023/07/25 12:50:45;;;;;;;2.88;2.08;;;;;;;16.37;100.00;97289.56;15272471;19;20025;-59
2023/07/25 12:56:20;;;;;;;2.35;1.83;;;;;;;16.39;100.00;97281.22;15267598;19;20018;-60
2023/07/25 13:01:44;;;;;;;2.30;1.90;;;;;;;16.40;100.00;97283.69;15270533;19;20024;-59
2023/07/25 13:07:09;;;;;;;1.80;1.70;;;;;;;16.39;100.00;97281.22;15282419;19;20018;-60
2023/07/25 13:12:36;;;;;;;2.70;2.50;;;;;;;16.36;100.00;97271.59;15283115;19;20018;-60
2023/07/25 13:18:01;;;;;;;3.63;2.33;;;;;;;16.37;100.00;97278.72;15277265;19;20691;-58
2023/07/25 13:23:25;;;;;;;3.33;1.20;;;;;;;16.23;100.00;97250.03;15282752;19;20014;-59
2023/07/25 13:28:53;;;;;;;1.52;1.00;;;;;;;16.09;100.00;97246.63;15283122;19;20035;-58
2023/07/25 13:34:17;;;;;;;4.07;2.10;;;;;;;15.61;100.00;97278.81;15281491;19;20025;-59
2023/07/25 13:39:44;;;;;;;4.05;2.25;;;;;;;15.20;100.00;97299.16;15281938;19;20022;-59
2023/07/25 13:45:12;;;;;;;6.20;3.40;;;;;;;14.78;100.00;97321.31;15281278;19;20015;-58
2023/07/25 13:50:37;;;;;;;8.13;5.63;;;;;;;14.52;100.00;97360.97;15278583;19;20014;-58
2023/07/25 13:56:10;;;;;;;7.55;5.53;;;;;;;14.39;100.00;97426.03;15276983;19;20466;-58
2023/07/25 14:01:38;;;;;;;9.75;7.80;;;;;;;14.29;100.00;97456.25;15278667;19;20021;-57
2023/07/25 14:07:04;;;;;;;7.78;6.68;;;;;;;14.22;100.00;97498.78;15275336;19;20485;-58
2023/07/25 14:12:30;;;;;;;7.10;5.70;;;;;;;14.16;100.00;97514.81;15279953;19;20383;-55
2023/07/25 14:17:57;;;;;;;8.80;6.18;;;;;;;14.18;100.00;97525.44;15275030;19;20102;-57
2023/07/25 14:23:22;;;;;;;8.55;7.43;;;;;;;14.16;100.00;97535.66;15272739;19;20025;-59
2023/07/25 14:28:47;;;;;;;7.10;4.82;;;;;;;14.12;100.00;97556.03;15277812;19;20094;-58
2023/07/25 14:34:14;;;;;;;4.65;3.35;;;;;;;14.04;100.00;97543.56;15277057;19;20017;-59
2023/07/25 14:39:39;;;;;;;4.25;3.00;;;;;;;13.99;100.00;97543.31;15282635;19;20380;-57
2023/07/25 14:45:04;;;;;;;9.27;4.80;;;;;;;13.97;100.00;97572.47;15276369;19;20015;-59
2023/07/25 14:50:32;;;;;;;6.75;4.20;;;;;;;13.95;100.00;97585.38;15278149;19;20010;-57
2023/07/25 14:55:58;;;;;;;5.35;2.63;;;;;;;13.74;100.00;97573.66;15267250;19;20017;-59
2023/07/25 15:01:22;;;;;;;4.70;2.97;;;;;;;13.58;100.00;97574.84;15278152;19;20025;-59
2023/07/25 15:06:51;;;;;;;4.00;2.83;;;;;;;13.47;100.00;97600.59;15274791;19;20011;-57
2023/07/25 15:12:15;;;;;;;3.25;1.70;;;;;;;13.37;100.00;97602.78;15279102;19;20020;-58
2023/07/25 15:17:41;;;;;;;3.47;2.38;;;;;;;13.30;100.00;97607.34;15273030;19;20021;-60
2023/07/25 15:23:09;;;;;;;3.17;2.03;;;;;;;13.25;100.00;97619.59;15272587;19;20022;-57
2023/07/25 15:28:34;;;;;;;3.30;2.17;;;;;;;13.20;100.00;97632.03;15269739;19;20182;-57
2023/07/25 15:33:59;;;;;;;2.42;2.22;;;;;;;13.18;100.00;97624.13;15272415;19;20089;-61
2023/07/25 15:39:27;;;;;;;2.70;1.90;;;;;;;13.17;100.00;97629.75;15272374;19;20014;-59
2023/07/25 15:44:51;;;;;;;3.10;1.80;;;;;;;13.20;100.00;97651.81;15269682;19;20021;-58
2023/07/25 15:50:17;;;;;;;3.60;2.20;;;;;;;13.28;100.00;97652.69;15272270;19;20014;-61
2023/07/25 15:55:45;;;;;;;2.17;1.50;;;;;;;13.37;100.00;97654.19;15268068;19;20094;-60
2023/07/25 16:01:10;;;;;;;5.47;1.70;;;;;;;13.41;100.00;97642.00;15268749;19;20014;-59
2023/07/25 16:06:35;;;;;;;3.65;1.20;;;;;;;13.47;100.00;97638.47;15270787;19;20014;-59
2023/07/25 16:12:02;;;;;;;2.97;1.33;;;;;;;13.55;100.00;97627.50;15267803;19;20479;-59
2023/07/25 16:17:35;;;;;;;2.53;1.20;;;;;;;13.57;100.00;97616.47;15265991;19;20061;-60
2023/07/25 16:23:01;;;;;;;3.58;1.35;;;;;;;13.62;100.00;97605.03;15271464;19;20014;-60
2023/07/25 16:28:28;;;;;;;2.67;1.35;;;;;;;13.63;100.00;97590.47;15263725;19;20379;-58
2023/07/25 16:33:54;;;;;;;2.85;1.30;;;;;;;13.67;100.00;97594.47;15265062;19;20034;-62
2023/07/25 16:39:19;;;;;;;3.78;1.30;;;;;;;13.73;100.00;97607.16;15272064;19;20054;-60
2023/07/25 16:44:47;;;;;;;2.92;1.50;;;;;;;13.77;100.00;97588.66;15282479;19;20006;-58
2023/07/25 16:50:14;;;;;;;4.45;1.30;;;;;;;13.77;100.00;97573.25;15281652;19;20022;-58
2023/07/25 16:55:38;;;;;;;3.17;1.10;;;;;;;13.74;100.00;97532.22;15278660;19;20102;-59
2023/07/25 17:01:06;;;;;;;3.58;1.13;;;;;;;13.81;100.00;97541.19;15278348;19;20015;-60
2023/07/25 17:06:32;;;;;;;3.10;1.00;;;;;;;13.75;100.00;97550.97;15280329;19;20486;-60
2023/07/25 17:11:57;;;;;;;2.13;1.20;;;;;;;13.75;100.00;97544.72;15281888;19;20622;-60
2023/07/25 17:17:24;;;;;;;4.75;1.65;;;;;;;13.69;100.00;97538.25;15276611;19;20418;-59
2023/07/25 17:22:50;;;;;;;3.45;1.00;;;;;;;13.63;100.00;97523.66;15277899;19;20081;-59
2023/07/25 17:28:14;;;;;;;3.35;1.10;;;;;;;13.54;100.00;97517.59;15285785;19;20362;-58
2023/07/25 17:33:42;;;;;;;5.97;1.02;;;;;;;13.51;100.00;97545.06;15280464;19;20018;-59
2023/07/25 17:39:07;;;;;;;3.95;1.17;;;;;;;13.41;100.00;97556.22;15277694;19;20809;-60
2023/07/25 17:44:32;;;;;;;5.20;1.40;;;;;;;13.39;100.00;97577.28;15278183;19;20369;-58
2023/07/25 17:49:59;;;;;;;3.25;1.20;;;;;;;13.33;100.00;97590.72;15282239;19;20018;-60
2023/07/25 17:55:31;;;;;;;3.80;1.30;;;;;;;13.31;100.00;97614.44;15278299;19;20018;-60
2023/07/25 18:00:58;;;;;;;4.85;1.75;;;;;;;13.29;100.00;97627.31;15280779;19;20025;-61
2023/07/25 18:06:27;;;;;;;3.20;1.50;;;;;;;13.30;100.00;97653.34;15271472;19;20019;-59
2023/07/25 18:11:55;;;;;;;4.57;1.70;;;;;;;13.32;100.00;97653.97;15287222;19;20022;-61
2023/07/25 18:17:26;;;;;;;3.53;1.55;;;;;;;13.30;100.00;97664.16;15279764;19;20078;-62
2023/07/25 18:22:53;;;;;;;4.38;1.77;;;;;;;13.31;100.00;97680.16;15280310;19;20023;-60
2023/07/25 18:28:20;;;;;;;2.83;1.50;;;;;;;13.31;100.00;97696.41;15283927;19;20010;-61
2023/07/25 18:33:44;;;;;;;4.55;1.70;;;;;;;13.29;100.00;97703.06;15278507;19;20651;-61
2023/07/25 18:39:13;;;;;;;3.90;1.70;;;;;;;13.27;100.00;97705.97;15271799;19;20384;-61
2023/07/25 18:44:38;;;;;;;6.00;1.85;;;;;;;13.25;100.00;97710.72;15276835;19;20014;-62
2023/07/25 18:50:03;;;;;;;3.70;1.60;;;;;;;13.25;100.00;97716.97;15279960;19;20018;-59
2023/07/25 18:55:38;;;;;;;2.67;1.40;;;;;;;13.24;100.00;97718.00;15270116;19;20676;-82
2023/07/25 19:01:02;;;;;;;4.30;1.80;;;;;;;13.26;100.00;97734.88;15278460;19;20018;-81
2023/07/25 19:06:27;;;;;;;4.00;1.80;;;;;;;13.25;100.00;97741.31;15283543;19;20010;-82
2023/07/25 19:11:55;;;;;;;6.10;2.10;;;;;;;13.22;100.00;97752.53;15280667;19;20019;-81
2023/07/25 19:17:20;;;;;;;5.90;2.10;;;;;;;13.20;100.00;97760.00;15285707;19;20022;-79
2023/07/25 19:22:45;;;;;;;3.50;1.70;;;;;;;13.15;100.00;97756.22;15283978;19;20022;-78
2023/07/25 19:28:12;;;;;;;6.75;1.70;;;;;;;13.13;100.00;97772.59;15286682;19;20019;-78
2023/07/25 19:33:37;;;;;;;4.45;1.50;;;;;;;13.09;100.00;97774.88;15285460;19;20007;-80
2023/07/25 19:39:01;;;;;;;3.17;1.48;;;;;;;13.06;100.00;97775.25;15289772;19;20010;-78
2023/07/25 19:44:28;;;;;;;4.15;1.58;;;;;;;13.04;100.00;97777.34;15299390;19;20006;-78
2023/07/25 19:49:53;;;;;;;9.02;2.00;;;;;;;13.03;100.00;97785.63;15297138;19;20024;-80
2023/07/25 19:55:17;;;;;;;5.78;2.03;;;;;;;12.99;100.00;97795.16;15297161;19;20080;-79
2023/07/25 20:00:45;;;;;;;4.72;1.90;;;;;;;12.94;100.00;97799.28;15294591;19;20031;-78
2023/07/25 20:06:11;;;;;;;8.20;2.20;;;;;;;12.89;100.00;97817.91;15277267;19;20018;-78
2023/07/25 20:11:42;;;;;;;7.80;1.90;;;;;;;12.86;100.00;97826.44;15300374;19;20015;-80
2023/07/25 20:17:09;;;;;;;6.75;1.80;;;;;;;12.87;100.00;97835.38;15310983;19;20585;-79
2023/07/25 20:22:34;;;;;;;4.25;1.60;;;;;;;12.86;100.00;97830.97;15315521;19;20007;-80
2023/07/25 20:27:58;;;;;;;3.38;1.52;;;;;;;12.86;100.00;97828.28;15316806;19;20015;-79
2023/07/25 20:33:34;;;;;;;3.00;1.63;;;;;;;12.85;100.00;97835.56;15279707;19;20022;-51
2023/07/25 20:38:58;;;;;;;6.82;1.95;;;;;;;12.84;100.00;97844.72;15278891;19;20555;-54
2023/07/25 20:44:23;;;;;;;4.10;1.88;;;;;;;12.83;100.00;97855.69;15284634;19;20027;-56
2023/07/25 20:49:50;;;;;;;3.92;1.80;;;;;;;12.83;100.00;97861.09;15278385;19;20014;-54
2023/07/25 20:55:16;;;;;;;6.07;2.00;;;;;;;12.85;100.00;97864.44;15281469;19;20029;-52
2023/07/25 21:00:40;;;;;;;4.90;1.85;;;;;;;12.86;100.00;97868.84;15279218;19;20019;-53
2023/07/25 21:06:08;;;;;;;7.00;2.10;;;;;;;12.87;100.00;97874.06;15282009;19;20025;-54
2023/07/25 21:11:32;;;;;;;4.47;1.67;;;;;;;12.88;100.00;97873.00;15285982;19;20040;-54
2023/07/25 21:16:59;;;;;;;4.93;2.00;;;;;;;12.88;100.00;97873.00;15282586;19;20022;-52
2023/07/25 21:22:27;;;;;;;3.67;1.90;;;;;;;12.88;100.00;97883.81;15278061;19;20018;-54
2023/07/25 21:27:52;;;;;;;5.97;2.10;;;;;;;12.87;100.00;97890.28;15280811;19;20019;-53
2023/07/25 21:33:26;;;;;;;5.70;2.20;;;;;;;12.85;100.00;97889.63;15278880;19;20019;-53
2023/07/25 21:38:53;;;;;;;2.78;1.70;;;;;;;12.84;100.00;97893.38;15274621;19;20030;-54
2023/07/25 21:44:18;;;;;;;5.88;2.08;;;;;;;12.87;100.00;97897.53;15282132;19;20011;-54
2023/07/25 21:49:43;;;;;;;4.55;1.90;;;;;;;12.87;100.00;97895.69;15284359;19;20018;-53
2023/07/25 21:55:10;;;;;;;4.35;1.67;;;;;;;12.86;100.00;97898.56;15276733;19;20017;-52
2023/07/25 22:00:35;;;;;;;5.65;1.63;;;;;;;12.86;100.00;97903.97;15277160;19;20022;-52
2023/07/25 22:05:59;;;;;;;4.95;1.83;;;;;;;12.87;100.00;97911.91;15277949;19;20026;-53
2023/07/25 22:11:26;;;;;;;7.43;1.70;;;;;;;12.87;100.00;97911.91;15281517;19;20024;-52
2023/07/25 22:16:51;;;;;;;4.47;1.63;;;;;;;12.85;100.00;97915.81;15277683;19;20018;-54
2023/07/25 22:22:16;;;;;;;7.32;1.90;;;;;;;12.89;100.00;97926.06;15279939;19;20021;-54
2023/07/25 22:27:45;;;;;;;7.38;1.95;;;;;;;12.90;100.00;97926.91;15274388;19;20017;-51
2023/07/25 22:33:16;;;;;;;9.73;2.30;;;;;;;12.89;100.00;97931.47;15276921;19;20019;-51
2023/07/25 22:38:40;;;;;;;5.20;2.10;;;;;;;12.91;100.00;97937.53;15276291;19;20605;-52
2023/07/25 22:44:08;;;;;;;11.80;2.70;;;;;;;12.89;100.00;97926.06;15277208;19;20694;-51
2023/07/25 22:49:33;;;;;;;6.93;2.30;;;;;;;12.87;100.00;97938.94;15279177;19;20039;-55
2023/07/25 22:54:58;;;;;;;6.55;1.95;;;;;;;12.85;100.00;97935.59;15277026;19;20647;-54
2023/07/25 23:00:25;;;;;;;10.23;2.30;;;;;;;12.86;100.00;97939.13;15270585;19;20030;-53
2023/07/25 23:05:50;;;;;;;9.90;2.20;;;;;;;12.86;100.00;97942.69;15276819;19;20497;-53
2023/07/25 23:11:15;;;;;;;7.07;1.98;;;;;;;12.87;100.00;97940.81;15278239;19;20395;-53
2023/07/25 23:16:42;;;;;;;8.32;2.40;;;;;;;12.87;100.00;97951.63;15274353;19;20493;-52
2023/07/25 23:22:07;;;;;;;11.68;2.40;;;;;;;12.87;100.00;97948.91;15276030;19;20011;-54
2023/07/25 23:27:31;;;;;;;9.65;2.20;;;;;;;12.85;100.00;97953.66;15274534;19;20010;-52
2023/07/25 23:32:58;;;;;;;10.13;2.28;;;;;;;12.83;100.00;97953.84;15268691;19;20030;-53
2023/07/25 23:38:23;;;;;;;8.60;2.13;;;;;;;12.79;100.00;97969.63;15273289;19;20039;-53
2023/07/25 23:43:48;;;;;;;7.53;1.90;;;;;;;12.79;100.00;97964.22;15272867;19;20029;-52
2023/07/25 23:49:15;;;;;;;5.13;1.70;;;;;;;12.78;100.00;97973.34;15276864;19;20015;-55
2023/07/25 23:54:40;;;;;;;6.15;1.80;;;;;;;12.78;100.00;97967.09;15274801;19;20013;-55
